Time;durP1;ratioP1;P1;durP2;ratioP2;P2;SDS_P1;SDS_P2;PMS_P1;PMS_P2;Temp;Humidity;BMP_temperature;BMP_pressure;BME280_temperature;BME280_humidity;BME280_pressure;Samples;Min_cycle;Max_cycle;Signal;HPM_P1;HPM_P2
2022/11/24 00:01:08;;;;;;;5.25;1.88;;;;;;;;;;4755063;30;20063;-64
2022/11/24 00:03:39;;;;;;;7.00;1.85;;;;;;;;;;4767801;30;20060;-64
2022/11/24 00:06:11;;;;;;;6.18;1.88;;;;;;;;;;4807212;29;20062;-64
2022/11/24 00:08:45;;;;;;;5.38;2.55;;;;;;;;;;4875097;29;20128;-63
2022/11/24 00:11:18;;;;;;;5.55;2.45;;;;;;;;;;4917282;29;20519;-65
2022/11/24 00:13:49;;;;;;;6.13;2.03;;;;;;;;;;4928102;29;20056;-64
2022/11/24 00:16:26;;;;;;;5.97;2.13;;;;;;;;;;4933191;29;20121;-64
2022/11/24 00:18:59;;;;;;;5.97;1.90;;;;;;;;;;4932998;29;20428;-63
2022/11/24 00:21:30;;;;;;;4.85;2.35;;;;;;;;;;4933268;29;20044;-64
2022/11/24 00:24:02;;;;;;;9.68;2.33;;;;;;;;;;4926098;29;20051;-63
2022/11/24 00:26:33;;;;;;;6.53;2.50;;;;;;;;;;4958289;28;20607;-63
2022/11/24 00:29:05;;;;;;;;;;;;;;;;;;4990998;28;20054;-64
2022/11/24 00:31:39;;;;;;;3.92;2.05;;;;;;;;;;4990086;28;19933;-63
2022/11/24 00:34:14;;;;;;;4.82;2.42;;;;;;;;;;4991087;28;20042;-63
2022/11/24 00:36:44;;;;;;;5.70;1.90;;;;;;;;;;4990740;28;20051;-63
2022/11/24 00:39:16;;;;;;;5.97;1.92;;;;;;;;;;4990925;28;20062;-63
2022/11/24 00:41:46;;;;;;;6.82;3.88;;;;;;;;;;4992649;28;20054;-63
2022/11/24 00:44:17;;;;;;;6.63;2.47;;;;;;;;;;5029669;28;20053;-63
2022/11/24 00:46:47;;;;;;;6.93;2.67;;;;;;;;;;4981030;28;20502;-63
2022/11/24 00:49:17;;;;;;;9.85;2.55;;;;;;;;;;5029285;28;20457;-62
2022/11/24 00:51:47;;;;;;;7.38;2.75;;;;;;;;;;5055109;28;20052;-63
2022/11/24 00:54:17;;;;;;;8.55;2.67;;;;;;;;;;5068257;28;20632;-63
2022/11/24 00:56:47;;;;;;;5.95;3.22;;;;;;;;;;5065210;28;20436;-63
2022/11/24 00:59:17;;;;;;;5.05;2.40;;;;;;;;;;5069316;28;20507;-62
2022/11/24 01:01:47;;;;;;;9.43;2.80;;;;;;;;;;5069244;28;20411;-63
2022/11/24 01:04:17;;;;;;;7.35;2.70;;;;;;;;;;5069380;28;20511;-63
2022/11/24 01:06:48;;;;;;;7.85;2.58;;;;;;;;;;5069557;28;20537;-62
2022/11/24 01:09:18;;;;;;;9.15;2.60;;;;;;;;;;5069347;28;20538;-63
2022/11/24 01:12:03;;;;;;;6.15;2.40;;;;;;;;;;5019491;28;20566;-63
2022/11/24 01:14:33;;;;;;;8.90;2.28;;;;;;;;;;5035880;28;20060;-64
2022/11/24 01:17:04;;;;;;;9.02;3.20;;;;;;;;;;5035750;28;20484;-64
2022/11/24 01:19:35;;;;;;;7.28;2.92;;;;;;;;;;5069073;28;20048;-63
2022/11/24 01:22:05;;;;;;;9.98;3.00;;;;;;;;;;5057645;28;20056;-63
2022/11/24 01:24:35;;;;;;;8.48;2.80;;;;;;;;;;5049026;28;20052;-65
2022/11/24 01:27:05;;;;;;;8.20;2.75;;;;;;;;;;5032874;28;20136;-64
2022/11/24 01:29:37;;;;;;;7.90;2.35;;;;;;;;;;5048807;28;20056;-62
2022/11/24 01:32:07;;;;;;;7.63;2.72;;;;;;;;;;5048921;28;20044;-62
2022/11/24 01:34:37;;;;;;;7.47;2.90;;;;;;;;;;5060023;28;20071;-65
2022/11/24 01:37:07;;;;;;;6.57;2.20;;;;;;;;;;5048594;28;20049;-63
2022/11/24 01:39:37;;;;;;;8.35;2.53;;;;;;;;;;5015302;28;20095;-64
2022/11/24 01:42:08;;;;;;;7.53;2.63;;;;;;;;;;5048585;28;20088;-63
2022/11/24 01:44:43;;;;;;;12.30;4.20;;;;;;;;;;5048774;28;20052;-62
2022/11/24 01:47:23;;;;;;;6.50;2.47;;;;;;;;;;5048725;28;20068;-63
2022/11/24 01:49:58;;;;;;;5.15;2.42;;;;;;;;;;4999271;28;20057;-62
2022/11/24 01:52:33;;;;;;;6.15;2.60;;;;;;;;;;5048626;28;20165;-63
2022/11/24 01:55:09;;;;;;;7.65;2.25;;;;;;;;;;5048600;28;20056;-63
2022/11/24 01:57:45;;;;;;;5.47;2.58;;;;;;;;;;5048686;28;20149;-62
2022/11/24 02:00:17;;;;;;;6.32;2.20;;;;;;;;;;5048579;28;20068;-62
2022/11/24 02:02:47;;;;;;;6.88;2.70;;;;;;;;;;5048216;28;20045;-62
2022/11/24 02:05:37;;;;;;;6.95;2.53;;;;;;;;;;5027867;28;20057;-62
2022/11/24 02:08:17;;;;;;;7.18;2.53;;;;;;;;;;4979472;28;20096;-62
2022/11/24 02:10:48;;;;;;;4.70;2.42;;;;;;;;;;5028482;28;20060;-62
2022/11/24 02:13:20;;;;;;;5.45;2.40;;;;;;;;;;5030031;28;20057;-63
2022/11/24 02:15:53;;;;;;;7.97;3.00;;;;;;;;;;5067408;28;20064;-61
2022/11/24 02:18:23;;;;;;;9.88;2.92;;;;;;;;;;5035039;28;20563;-63
2022/11/24 02:20:54;;;;;;;8.95;2.55;;;;;;;;;;5019450;28;20052;-62
2022/11/24 02:23:36;;;;;;;5.85;2.55;;;;;;;;;;5068298;28;20056;-63
2022/11/24 02:26:29;;;;;;;9.57;3.10;;;;;;;;;;5034837;28;20052;-62
2022/11/24 02:29:02;;;;;;;8.43;2.55;;;;;;;;;;5008546;28;20062;-62
2022/11/24 02:31:33;;;;;;;14.80;2.85;;;;;;;;;;5008650;28;20054;-62
2022/11/24 02:34:03;;;;;;;14.15;3.85;;;;;;;;;;5008411;28;20084;-64
2022/11/24 02:36:33;;;;;;;6.97;2.80;;;;;;;;;;5008896;28;20065;-64
2022/11/24 02:39:10;;;;;;;9.38;3.10;;;;;;;;;;5008427;28;20045;-63
2022/11/24 02:41:47;;;;;;;10.68;3.38;;;;;;;;;;4976135;28;20061;-64
2022/11/24 02:44:19;;;;;;;9.05;3.35;;;;;;;;;;4995494;28;20049;-64
2022/11/24 02:46:49;;;;;;;;;;;;;;;;;;5028651;28;20065;-64
2022/11/24 02:49:19;;;;;;;9.50;3.33;;;;;;;;;;5033609;28;19928;-65
2022/11/24 02:51:49;;;;;;;7.60;2.83;;;;;;;;;;5012160;28;20057;-63
2022/11/24 02:54:19;;;;;;;8.55;2.72;;;;;;;;;;5028013;28;20161;-64
2022/11/24 02:56:49;;;;;;;6.57;2.53;;;;;;;;;;5031997;28;20057;-64
2022/11/24 02:59:21;;;;;;;4.20;2.20;;;;;;;;;;5015857;28;20064;-64
2022/11/24 03:01:52;;;;;;;8.63;2.60;;;;;;;;;;5031822;28;20569;-64
2022/11/24 03:04:22;;;;;;;6.07;2.70;;;;;;;;;;4998464;28;20486;-64
2022/11/24 03:06:52;;;;;;;6.90;3.10;;;;;;;;;;5049120;28;20052;-64
2022/11/24 03:09:22;;;;;;;7.95;2.83;;;;;;;;;;5094232;28;20044;-64
2022/11/24 03:11:51;;;;;;;7.38;3.30;;;;;;;;;;5094273;28;20051;-65
2022/11/24 03:14:22;;;;;;;9.30;3.63;;;;;;;;;;5094303;28;20454;-64
2022/11/24 03:16:52;;;;;;;9.05;3.08;;;;;;;;;;5046885;28;20051;-64
2022/11/24 03:19:22;;;;;;;8.63;3.63;;;;;;;;;;5058284;28;20056;-64
2022/11/24 03:21:51;;;;;;;8.60;4.22;;;;;;;;;;5094480;28;20044;-65
2022/11/24 03:24:21;;;;;;;9.90;4.00;;;;;;;;;;5051088;28;20056;-64
2022/11/24 03:26:51;;;;;;;7.13;3.28;;;;;;;;;;5051259;28;20060;-64
2022/11/24 03:29:22;;;;;;;6.05;2.75;;;;;;;;;;5034990;28;20052;-64
2022/11/24 03:31:52;;;;;;;7.28;2.67;;;;;;;;;;5001751;28;20060;-64
2022/11/24 03:34:21;;;;;;;8.23;2.92;;;;;;;;;;5050967;28;20049;-64
2022/11/24 03:36:51;;;;;;;6.35;3.35;;;;;;;;;;5051082;28;20061;-64
2022/11/24 03:39:22;;;;;;;7.72;2.92;;;;;;;;;;5050936;28;20052;-64
2022/11/24 03:41:52;;;;;;;10.32;3.20;;;;;;;;;;5017904;28;20064;-64
2022/11/24 03:44:22;;;;;;;7.65;2.80;;;;;;;;;;5034722;28;20060;-65
2022/11/24 03:46:52;;;;;;;7.40;3.03;;;;;;;;;;5002635;28;20057;-63
2022/11/24 03:49:22;;;;;;;10.73;3.00;;;;;;;;;;5051062;28;20524;-64
2022/11/24 03:51:52;;;;;;;8.90;2.75;;;;;;;;;;5050891;28;20048;-64
2022/11/24 03:54:22;;;;;;;7.65;3.17;;;;;;;;;;4991574;28;20049;-64
2022/11/24 03:56:52;;;;;;;7.38;2.83;;;;;;;;;;4991485;28;20058;-64
2022/11/24 03:59:23;;;;;;;7.55;2.72;;;;;;;;;;4974856;28;20046;-64
2022/11/24 04:01:53;;;;;;;7.40;3.08;;;;;;;;;;4976773;28;20065;-63
2022/11/24 04:04:23;;;;;;;5.85;2.85;;;;;;;;;;5030844;28;20045;-64
2022/11/24 04:06:53;;;;;;;5.85;2.72;;;;;;;;;;5013912;28;20057;-64
2022/11/24 04:09:23;;;;;;;5.97;2.95;;;;;;;;;;4997887;28;20060;-63
2022/11/24 04:14:42;;;;;;;5.20;2.72;;;;;;;;;;4991084;28;20055;-64
2022/11/24 04:17:12;;;;;;;6.28;3.00;;;;;;;;;;4975465;28;20077;-63
2022/11/24 04:19:42;;;;;;;7.10;2.70;;;;;;;;;;4990727;28;20054;-63
2022/11/24 04:22:12;;;;;;;9.40;2.67;;;;;;;;;;4991147;28;20047;-63
2022/11/24 04:24:42;;;;;;;7.75;2.67;;;;;;;;;;4991052;28;20069;-63
2022/11/24 04:27:12;;;;;;;8.57;3.13;;;;;;;;;;4971654;28;20062;-65
2022/11/24 04:29:42;;;;;;;8.77;3.08;;;;;;;;;;4971401;28;20063;-64
2022/11/24 04:32:12;;;;;;;5.93;3.22;;;;;;;;;;4972495;28;20070;-63
2022/11/24 04:34:42;;;;;;;9.15;3.60;;;;;;;;;;4981144;28;20763;-63
2022/11/24 04:37:12;;;;;;;8.25;2.72;;;;;;;;;;5029884;28;20049;-63
2022/11/24 04:39:42;;;;;;;7.63;2.78;;;;;;;;;;4958207;28;20046;-63
2022/11/24 04:42:12;;;;;;;10.90;3.50;;;;;;;;;;4974292;28;20058;-63
2022/11/24 04:44:42;;;;;;;8.35;3.42;;;;;;;;;;4990584;28;20062;-64
2022/11/24 04:47:19;;;;;;;9.65;3.03;;;;;;;;;;4990722;28;20050;-63
2022/11/24 04:49:50;;;;;;;7.93;3.17;;;;;;;;;;4974266;28;20525;-63
2022/11/24 04:52:22;;;;;;;5.78;2.78;;;;;;;;;;4990593;28;20065;-63
2022/11/24 04:54:52;;;;;;;7.93;2.75;;;;;;;;;;4990359;28;20565;-63
2022/11/24 04:57:25;;;;;;;7.05;2.80;;;;;;;;;;4990696;28;20486;-64
2022/11/24 04:59:56;;;;;;;6.10;3.10;;;;;;;;;;4990447;28;20115;-62
2022/11/24 05:02:26;;;;;;;6.22;2.53;;;;;;;;;;4990363;28;20085;-63
2022/11/24 05:04:56;;;;;;;4.47;2.20;;;;;;;;;;5000905;28;20076;-65
2022/11/24 05:07:26;;;;;;;8.77;2.80;;;;;;;;;;5009708;28;20115;-63
2022/11/24 05:12:53;;;;;;;7.63;3.13;;;;;;;;;;4990007;28;20065;-63
2022/11/24 05:15:23;;;;;;;8.25;3.33;;;;;;;;;;4990092;28;20070;-64
2022/11/24 05:17:53;;;;;;;6.70;2.88;;;;;;;;;;4999160;28;20069;-65
2022/11/24 05:20:24;;;;;;;6.07;2.63;;;;;;;;;;5049260;28;20056;-64
2022/11/24 05:22:54;;;;;;;6.53;2.95;;;;;;;;;;5032463;28;20523;-64
2022/11/24 05:25:26;;;;;;;8.02;2.67;;;;;;;;;;5016241;28;20072;-63
2022/11/24 05:28:02;;;;;;;7.70;2.92;;;;;;;;;;5049085;28;20516;-65
2022/11/24 05:30:33;;;;;;;5.80;2.95;;;;;;;;;;5049040;28;20057;-64
2022/11/24 05:33:08;;;;;;;6.95;2.80;;;;;;;;;;5029193;28;20053;-64
2022/11/24 05:35:39;;;;;;;6.60;2.47;;;;;;;;;;5029194;28;20057;-63
2022/11/24 05:38:09;;;;;;;5.15;2.67;;;;;;;;;;4996117;28;20390;-64
2022/11/24 05:40:39;;;;;;;7.82;2.67;;;;;;;;;;5029051;28;20049;-64
2022/11/24 05:43:13;;;;;;;4.65;2.25;;;;;;;;;;5029099;28;20060;-63
2022/11/24 05:45:44;;;;;;;8.70;2.55;;;;;;;;;;4996317;28;20441;-63
2022/11/24 05:48:15;;;;;;;5.38;2.58;;;;;;;;;;5028897;28;20049;-63
2022/11/24 05:50:45;;;;;;;8.10;3.33;;;;;;;;;;5041520;28;20477;-64
2022/11/24 05:53:15;;;;;;;6.15;2.58;;;;;;;;;;5015677;28;20049;-63
2022/11/24 05:55:45;;;;;;;9.57;3.28;;;;;;;;;;5015502;28;20160;-63
2022/11/24 05:58:15;;;;;;;8.02;3.83;;;;;;;;;;5015395;28;20440;-63
2022/11/24 06:00:45;;;;;;;7.45;3.05;;;;;;;;;;5015583;28;20063;-63
2022/11/24 06:03:15;;;;;;;6.60;3.00;;;;;;;;;;5048450;28;20489;-63
2022/11/24 06:05:46;;;;;;;5.45;2.75;;;;;;;;;;5047912;28;20049;-63
2022/11/24 06:08:17;;;;;;;5.90;3.58;;;;;;;;;;5048624;28;20053;-63
2022/11/24 06:10:46;;;;;;;7.40;2.70;;;;;;;;;;5048426;28;20157;-64
2022/11/24 06:13:18;;;;;;;10.00;3.25;;;;;;;;;;5048558;28;20052;-64
2022/11/24 06:15:49;;;;;;;9.70;3.38;;;;;;;;;;5048477;28;20487;-64
2022/11/24 06:18:19;;;;;;;5.93;2.85;;;;;;;;;;5031809;28;20057;-63
2022/11/24 06:20:49;;;;;;;6.70;2.80;;;;;;;;;;5015276;28;20497;-63
2022/11/24 06:23:39;;;;;;;6.25;3.20;;;;;;;;;;5048599;28;20060;-63
2022/11/24 06:26:10;;;;;;;7.03;2.60;;;;;;;;;;5048181;28;20690;-64
2022/11/24 06:28:40;;;;;;;5.78;2.70;;;;;;;;;;5048478;28;20049;-64
2022/11/24 06:31:10;;;;;;;7.72;2.95;;;;;;;;;;5051681;28;20061;-64
2022/11/24 06:33:40;;;;;;;7.35;2.90;;;;;;;;;;5052187;28;20057;-63
2022/11/24 06:36:13;;;;;;;8.35;2.88;;;;;;;;;;5035705;28;20056;-64
2022/11/24 06:38:44;;;;;;;6.78;3.03;;;;;;;;;;5052140;28;20567;-64
2022/11/24 06:41:15;;;;;;;6.72;2.55;;;;;;;;;;5052274;28;20568;-64
2022/11/24 06:43:46;;;;;;;8.15;2.63;;;;;;;;;;5055120;28;20085;-64
2022/11/24 06:46:16;;;;;;;5.35;2.35;;;;;;;;;;5031729;28;20061;-64
2022/11/24 06:48:47;;;;;;;5.30;2.20;;;;;;;;;;5032346;28;20093;-65
2022/11/24 06:51:17;;;;;;;8.70;2.50;;;;;;;;;;4976128;28;20050;-63
2022/11/24 06:53:47;;;;;;;9.05;2.72;;;;;;;;;;4992573;28;20062;-64
2022/11/24 06:56:19;;;;;;;7.57;2.67;;;;;;;;;;4992580;28;20098;-64
2022/11/24 06:58:52;;;;;;;10.23;3.05;;;;;;;;;;4992489;28;20054;-63
2022/11/24 07:01:25;;;;;;;5.60;2.97;;;;;;;;;;4992439;28;20046;-64
2022/11/24 07:03:57;;;;;;;6.88;2.72;;;;;;;;;;4992565;28;20054;-63
2022/11/24 07:06:28;;;;;;;7.50;2.75;;;;;;;;;;4953980;29;20066;-64
2022/11/24 07:08:59;;;;;;;9.68;2.33;;;;;;;;;;4921918;29;20063;-64
2022/11/24 07:11:29;;;;;;;7.38;3.30;;;;;;;;;;4921444;29;20698;-64
2022/11/24 07:14:00;;;;;;;5.32;2.03;;;;;;;;;;4953678;29;20535;-64
2022/11/24 07:16:30;;;;;;;7.97;2.83;;;;;;;;;;4921545;29;20067;-64
2022/11/24 07:19:02;;;;;;;5.35;2.22;;;;;;;;;;4953566;29;20060;-63
2022/11/24 07:21:32;;;;;;;5.75;2.30;;;;;;;;;;4921265;29;20055;-64
2022/11/24 07:24:02;;;;;;;7.10;2.72;;;;;;;;;;4974723;28;20054;-64
2022/11/24 07:26:36;;;;;;;7.88;2.83;;;;;;;;;;4992087;28;20507;-63
2022/11/24 07:29:06;;;;;;;6.13;3.03;;;;;;;;;;5014544;28;20061;-63
2022/11/24 07:31:36;;;;;;;7.25;3.30;;;;;;;;;;5031355;28;20064;-64
2022/11/24 07:34:07;;;;;;;8.57;2.88;;;;;;;;;;4998850;28;20561;-63
2022/11/24 07:36:37;;;;;;;6.38;2.25;;;;;;;;;;5031152;28;20050;-62
2022/11/24 07:39:06;;;;;;;4.63;2.78;;;;;;;;;;5031347;28;20053;-65
2022/11/24 07:41:37;;;;;;;7.13;2.40;;;;;;;;;;5030823;28;20056;-64
2022/11/24 07:44:07;;;;;;;5.45;2.70;;;;;;;;;;5030122;28;20062;-64
2022/11/24 07:46:37;;;;;;;7.80;2.78;;;;;;;;;;5093358;28;20048;-64
2022/11/24 07:49:07;;;;;;;6.07;2.50;;;;;;;;;;5076087;28;20043;-64
2022/11/24 07:51:37;;;;;;;5.60;2.70;;;;;;;;;;5093584;28;20051;-63
2022/11/24 07:54:07;;;;;;;6.82;2.80;;;;;;;;;;5075053;28;20071;-63
2022/11/24 07:56:37;;;;;;;11.60;3.22;;;;;;;;;;5093475;28;20048;-64
2022/11/24 07:59:07;;;;;;;5.53;2.78;;;;;;;;;;5093285;28;20047;-64
2022/11/24 08:01:38;;;;;;;4.78;2.13;;;;;;;;;;5093436;28;20402;-64
2022/11/24 08:04:08;;;;;;;6.60;2.40;;;;;;;;;;5036981;28;20491;-63
2022/11/24 08:06:38;;;;;;;7.78;2.50;;;;;;;;;;5070816;28;20053;-64
2022/11/24 08:09:15;;;;;;;6.75;2.00;;;;;;;;;;5070778;28;20625;-63
2022/11/24 08:11:45;;;;;;;4.13;2.13;;;;;;;;;;5037257;28;20052;-63
2022/11/24 08:14:16;;;;;;;7.05;2.40;;;;;;;;;;5037253;28;20053;-64
2022/11/24 08:16:47;;;;;;;6.80;2.45;;;;;;;;;;5070854;28;20083;-63
2022/11/24 08:19:17;;;;;;;7.85;2.65;;;;;;;;;;5070167;28;20055;-63
2022/11/24 08:21:47;;;;;;;7.70;2.63;;;;;;;;;;4987628;28;20092;-63
2022/11/24 08:24:17;;;;;;;10.32;4.13;;;;;;;;;;5029887;28;20053;-64
2022/11/24 08:26:47;;;;;;;6.82;2.50;;;;;;;;;;5030411;28;20072;-64
2022/11/24 08:29:17;;;;;;;5.35;2.50;;;;;;;;;;5029870;28;20046;-63
2022/11/24 08:31:47;;;;;;;5.63;2.72;;;;;;;;;;4990712;28;20526;-63
2022/11/24 08:34:17;;;;;;;5.03;2.40;;;;;;;;;;4970981;28;20046;-63
2022/11/24 08:36:47;;;;;;;5.53;2.40;;;;;;;;;;4955595;28;20058;-64
2022/11/24 08:39:17;;;;;;;6.82;2.72;;;;;;;;;;4971246;28;20059;-63
2022/11/24 08:41:48;;;;;;;5.35;2.53;;;;;;;;;;4971826;28;20059;-63
2022/11/24 08:44:18;;;;;;;6.50;2.50;;;;;;;;;;4971019;28;20054;-63
2022/11/24 08:46:49;;;;;;;7.65;3.13;;;;;;;;;;4971086;28;20065;-63
2022/11/24 08:49:21;;;;;;;6.30;3.08;;;;;;;;;;4971049;28;20070;-64
2022/11/24 08:51:52;;;;;;;9.27;3.33;;;;;;;;;;4957429;28;20042;-63
2022/11/24 08:54:25;;;;;;;9.23;2.83;;;;;;;;;;4957645;28;20050;-63
2022/11/24 08:56:55;;;;;;;8.48;3.83;;;;;;;;;;4990343;28;20726;-63
2022/11/24 08:59:25;;;;;;;8.63;3.45;;;;;;;;;;4958191;28;20058;-63
2022/11/24 09:01:55;;;;;;;8.40;3.45;;;;;;;;;;4951355;28;20060;-63
2022/11/24 09:04:25;;;;;;;6.72;3.00;;;;;;;;;;5009617;28;20046;-63
2022/11/24 09:06:56;;;;;;;6.75;3.20;;;;;;;;;;5010239;28;20092;-63
2022/11/24 09:09:27;;;;;;;5.60;2.85;;;;;;;;;;5019479;28;20061;-63
2022/11/24 09:11:57;;;;;;;6.60;2.65;;;;;;;;;;5039462;28;20052;-63
2022/11/24 09:14:29;;;;;;;6.97;2.63;;;;;;;;;;5049353;28;20053;-63
2022/11/24 09:17:00;;;;;;;9.10;2.70;;;;;;;;;;5049596;28;20057;-63
2022/11/24 09:19:30;;;;;;;6.05;2.67;;;;;;;;;;5032426;28;20068;-63
2022/11/24 09:22:01;;;;;;;7.18;2.67;;;;;;;;;;5052502;28;20052;-63
2022/11/24 09:24:31;;;;;;;5.75;2.35;;;;;;;;;;5091700;28;20133;-63
2022/11/24 09:27:01;;;;;;;7.25;2.67;;;;;;;;;;5029093;28;20053;-63
2022/11/24 09:29:31;;;;;;;5.53;2.22;;;;;;;;;;5029015;28;20061;-63
2022/11/24 09:32:01;;;;;;;5.70;2.60;;;;;;;;;;4989984;28;20057;-63
2022/11/24 09:34:35;;;;;;;6.85;2.63;;;;;;;;;;4989631;28;20069;-63
2022/11/24 09:37:05;;;;;;;5.35;2.90;;;;;;;;;;4957056;28;20054;-63
2022/11/24 09:39:35;;;;;;;6.45;3.00;;;;;;;;;;4989908;28;20180;-62
2022/11/24 09:42:14;;;;;;;8.02;2.38;;;;;;;;;;4989869;28;20568;-63
2022/11/24 09:45:13;;;;;;;6.32;2.28;;;;;;;;;;4941160;28;20050;-62
2022/11/24 09:48:15;;;;;;;5.70;3.10;;;;;;;;;;4957207;28;20407;-64
2022/11/24 09:50:47;;;;;;;10.93;2.33;;;;;;;;;;4989648;28;20133;-63
2022/11/24 09:53:37;;;;;;;7.68;2.65;;;;;;;;;;5002215;28;20046;-63
2022/11/24 09:56:30;;;;;;;6.18;2.38;;;;;;;;;;5009053;28;20058;-63
2022/11/24 09:59:20;;;;;;;4.28;2.33;;;;;;;;;;4976319;28;20395;-62
2022/11/24 10:01:51;;;;;;;4.43;2.50;;;;;;;;;;5009052;28;20501;-63
2022/11/24 10:04:26;;;;;;;5.85;2.72;;;;;;;;;;5024114;28;20072;-62
2022/11/24 10:07:09;;;;;;;5.00;2.47;;;;;;;;;;5048683;28;20044;-62
2022/11/24 10:10:07;;;;;;;4.50;2.30;;;;;;;;;;5070913;28;20067;-63
2022/11/24 10:12:46;;;;;;;7.65;2.55;;;;;;;;;;5091162;28;20048;-63
2022/11/24 10:15:51;;;;;;;6.97;1.90;;;;;;;;;;5091340;28;20101;-63
2022/11/24 10:18:34;;;;;;;5.70;2.00;;;;;;;;;;4995792;28;20065;-63
2022/11/24 10:21:25;;;;;;;4.25;2.20;;;;;;;;;;4996987;28;20060;-63
2022/11/24 10:24:06;;;;;;;4.22;1.98;;;;;;;;;;5028353;28;20524;-62
2022/11/24 10:26:39;;;;;;;8.15;1.98;;;;;;;;;;5028242;28;20049;-63
2022/11/24 10:29:12;;;;;;;4.22;2.30;;;;;;;;;;5028475;28;20532;-63
2022/11/24 10:31:44;;;;;;;6.32;2.38;;;;;;;;;;5012256;28;20054;-64
2022/11/24 10:34:22;;;;;;;12.43;2.47;;;;;;;;;;5028448;28;20045;-63
2022/11/24 10:37:09;;;;;;;6.03;2.17;;;;;;;;;;5028326;28;21340;-63
2022/11/24 10:39:57;;;;;;;9.98;2.38;;;;;;;;;;5028432;28;20544;-63
2022/11/24 10:42:35;;;;;;;6.15;2.25;;;;;;;;;;5017707;28;20080;-65
2022/11/24 10:45:16;;;;;;;6.97;2.60;;;;;;;;;;4965562;28;20058;-64
2022/11/24 10:47:49;;;;;;;9.00;3.08;;;;;;;;;;4997715;28;20518;-64
2022/11/24 10:50:30;;;;;;;7.80;2.67;;;;;;;;;;5004530;28;20046;-63
2022/11/24 10:53:30;;;;;;;6.57;2.22;;;;;;;;;;4978473;28;20076;-63
2022/11/24 10:56:04;;;;;;;4.43;2.25;;;;;;;;;;5045736;28;20045;-61
2022/11/24 10:58:37;;;;;;;6.20;2.47;;;;;;;;;;5046098;28;20076;-63
2022/11/24 11:01:13;;;;;;;5.28;2.25;;;;;;;;;;5010956;28;20053;-62
2022/11/24 11:03:56;;;;;;;8.00;2.25;;;;;;;;;;4991149;28;20042;-64
2022/11/24 11:06:30;;;;;;;5.40;2.30;;;;;;;;;;4960600;28;20581;-63
2022/11/24 11:09:07;;;;;;;6.55;2.03;;;;;;;;;;4975566;28;20572;-62
2022/11/24 11:11:38;;;;;;;3.90;2.03;;;;;;;;;;5006541;28;20050;-63
2022/11/24 11:14:11;;;;;;;3.85;1.52;;;;;;;;;;4999340;28;20066;-62
2022/11/24 11:16:54;;;;;;;6.18;1.90;;;;;;;;;;5000682;28;20061;-63
2022/11/24 11:19:40;;;;;;;4.45;2.10;;;;;;;;;;5000449;28;20054;-63
2022/11/24 11:22:25;;;;;;;9.02;2.40;;;;;;;;;;5003346;28;20221;-62
2022/11/24 11:25:06;;;;;;;5.93;2.05;;;;;;;;;;5001479;28;20062;-64
2022/11/24 11:27:38;;;;;;;5.07;2.00;;;;;;;;;;4984879;28;20046;-65
2022/11/24 11:30:27;;;;;;;3.65;2.20;;;;;;;;;;5028933;28;20053;-61
2022/11/24 11:33:23;;;;;;;4.30;2.00;;;;;;;;;;5038305;28;20505;-63
2022/11/24 11:36:15;;;;;;;5.60;2.53;;;;;;;;;;5011570;28;20049;-65
2022/11/24 11:38:47;;;;;;;7.00;2.10;;;;;;;;;;5011877;28;20534;-63
2022/11/24 11:41:33;;;;;;;4.60;1.75;;;;;;;;;;5011208;28;20061;-63
2022/11/24 11:44:43;;;;;;;4.97;2.30;;;;;;;;;;5011367;28;20046;-63
2022/11/24 11:47:25;;;;;;;8.30;2.38;;;;;;;;;;4994909;28;20065;-66
2022/11/24 11:49:56;;;;;;;6.35;2.38;;;;;;;;;;5011662;28;20046;-64
2022/11/24 11:52:45;;;;;;;8.88;5.72;;;;;;;;;;5026207;28;20157;-62
2022/11/24 11:55:45;;;;;;;5.38;2.50;;;;;;;;;;5028508;28;20060;-63
2022/11/24 11:58:18;;;;;;;3.70;2.03;;;;;;;;;;4932748;29;20067;-64
2022/11/24 12:01:11;;;;;;;5.65;2.42;;;;;;;;;;4932659;29;20059;-63
2022/11/24 12:03:46;;;;;;;6.72;2.50;;;;;;;;;;4933203;29;20079;-63
2022/11/24 12:06:37;;;;;;;4.38;2.33;;;;;;;;;;4933099;29;20059;-64
2022/11/24 12:09:44;;;;;;;9.52;4.25;;;;;;;;;;4913377;29;20052;-63
2022/11/24 12:12:49;;;;;;;8.65;4.47;;;;;;;;;;4914003;29;20152;-63
2022/11/24 12:15:35;;;;;;;5.47;2.47;;;;;;;;;;4951729;29;20194;-64
2022/11/24 12:18:11;;;;;;;6.50;2.22;;;;;;;;;;4952157;29;20124;-64
2022/11/24 12:21:35;;;;;;;6.45;2.63;;;;;;;;;;4952350;29;20062;-63
2022/11/24 12:24:17;;;;;;;6.30;2.45;;;;;;;;;;4952172;29;20075;-63
2022/11/24 12:27:15;;;;;;;7.18;2.75;;;;;;;;;;4932891;29;20055;-63
2022/11/24 12:30:10;;;;;;;5.25;2.90;;;;;;;;;;4913221;29;20062;-64
2022/11/24 12:33:04;;;;;;;10.43;2.70;;;;;;;;;;4867401;29;20057;-62
2022/11/24 12:35:38;;;;;;;5.57;2.40;;;;;;;;;;4873018;29;20052;-64
2022/11/24 12:38:30;;;;;;;5.78;3.15;;;;;;;;;;4898137;29;20104;-64
2022/11/24 12:41:44;;;;;;;5.85;2.13;;;;;;;;;;4913610;29;20068;-63
2022/11/24 12:44:34;;;;;;;5.05;3.20;;;;;;;;;;4876300;29;20079;-63
2022/11/24 12:47:19;;;;;;;4.32;2.20;;;;;;;;;;4904771;29;20055;-65
2022/11/24 12:50:09;;;;;;;4.28;2.13;;;;;;;;;;4913354;29;20064;-63
2022/11/24 12:52:45;;;;;;;5.97;2.30;;;;;;;;;;4913533;29;20075;-62
2022/11/24 12:55:20;;;;;;;5.28;2.30;;;;;;;;;;4895157;29;20052;-65
2022/11/24 12:58:07;;;;;;;5.85;2.70;;;;;;;;;;4910360;29;20055;-63
2022/11/24 13:01:12;;;;;;;12.13;2.90;;;;;;;;;;4866440;29;20063;-63
2022/11/24 13:04:06;;;;;;;7.20;2.47;;;;;;;;;;4917317;29;20059;-63
2022/11/24 13:06:58;;;;;;;5.53;3.15;;;;;;;;;;4931962;29;20097;-63
2022/11/24 13:09:28;;;;;;;4.97;2.40;;;;;;;;;;4916164;29;20062;-63
2022/11/24 13:12:15;;;;;;;7.45;3.97;;;;;;;;;;4932267;29;20412;-62
2022/11/24 13:14:47;;;;;;;6.57;3.03;;;;;;;;;;4951229;29;20427;-63
2022/11/24 13:17:35;;;;;;;8.77;4.53;;;;;;;;;;4950881;29;20058;-63
2022/11/24 13:20:39;;;;;;;9.80;4.47;;;;;;;;;;4964137;28;20050;-64
2022/11/24 13:23:29;;;;;;;7.65;3.38;;;;;;;;;;4973286;28;20050;-64
2022/11/24 13:26:14;;;;;;;6.15;3.42;;;;;;;;;;4966835;28;20047;-63
2022/11/24 13:29:03;;;;;;;6.45;3.80;;;;;;;;;;5006412;28;20057;-63
2022/11/24 13:32:21;;;;;;;9.50;3.85;;;;;;;;;;5007769;28;20050;-63
2022/11/24 13:34:53;;;;;;;7.25;3.58;;;;;;;;;;4974622;28;20054;-63
2022/11/24 13:37:28;;;;;;;9.38;3.30;;;;;;;;;;4988089;28;20152;-63
2022/11/24 13:40:15;;;;;;;5.22;3.08;;;;;;;;;;5004788;28;20523;-64
2022/11/24 13:42:56;;;;;;;6.82;3.05;;;;;;;;;;5047021;28;20053;-63
2022/11/24 13:45:39;;;;;;;9.07;2.97;;;;;;;;;;5065469;28;20056;-63
2022/11/24 13:48:18;;;;;;;6.00;2.80;;;;;;;;;;5065781;28;20048;-64
2022/11/24 13:50:50;;;;;;;9.38;2.65;;;;;;;;;;5065710;28;20052;-63
2022/11/24 13:53:44;;;;;;;5.50;3.30;;;;;;;;;;5017345;28;20675;-63
2022/11/24 13:56:15;;;;;;;4.50;2.40;;;;;;;;;;5049573;28;20056;-63
2022/11/24 13:58:51;;;;;;;7.50;2.92;;;;;;;;;;5029715;28;20053;-63
2022/11/24 14:01:25;;;;;;;6.63;2.55;;;;;;;;;;5058158;28;20052;-64
2022/11/24 14:04:14;;;;;;;6.35;2.92;;;;;;;;;;5038683;28;20062;-64
2022/11/24 14:07:12;;;;;;;7.88;2.10;;;;;;;;;;5027239;28;20053;-63
2022/11/24 14:09:51;;;;;;;4.03;2.10;;;;;;;;;;4991768;28;20053;-64
2022/11/24 14:12:24;;;;;;;6.07;2.53;;;;;;;;;;5012646;28;20053;-63
2022/11/24 14:15:21;;;;;;;6.10;2.25;;;;;;;;;;5034023;28;20582;-63
2022/11/24 14:17:53;;;;;;;4.57;2.42;;;;;;;;;;5068607;28;20055;-64
2022/11/24 14:20:25;;;;;;;5.70;2.67;;;;;;;;;;5035242;28;20052;-64
2022/11/24 14:22:55;;;;;;;4.43;1.95;;;;;;;;;;5035269;28;20064;-64
2022/11/24 14:25:33;;;;;;;4.85;2.03;;;;;;;;;;5068566;28;20055;-64
2022/11/24 14:28:24;;;;;;;4.40;2.20;;;;;;;;;;5038118;28;20056;-67
2022/11/24 14:31:09;;;;;;;3.00;1.85;;;;;;;;;;5012352;28;20057;-64
2022/11/24 14:33:39;;;;;;;5.25;2.10;;;;;;;;;;4994767;28;20548;-63
2022/11/24 14:36:14;;;;;;;4.80;1.90;;;;;;;;;;5028777;28;20058;-62
2022/11/24 14:38:47;;;;;;;3.67;1.80;;;;;;;;;;5036596;28;20103;-62
2022/11/24 14:41:24;;;;;;;4.95;1.90;;;;;;;;;;5047735;28;20049;-65
2022/11/24 14:44:10;;;;;;;3.25;1.80;;;;;;;;;;5058521;28;20052;-63
2022/11/24 14:46:41;;;;;;;3.55;1.65;;;;;;;;;;5050039;28;20056;-63
2022/11/24 14:49:21;;;;;;;3.17;1.73;;;;;;;;;;5059182;28;20200;-65
2022/11/24 14:52:07;;;;;;;5.82;1.90;;;;;;;;;;5061114;28;20080;-64
2022/11/24 14:54:52;;;;;;;3.33;1.52;;;;;;;;;;5070095;28;20045;-62
2022/11/24 14:57:29;;;;;;;3.42;1.30;;;;;;;;;;5028179;28;20048;-64
2022/11/24 15:00:16;;;;;;;3.03;1.50;;;;;;;;;;5080118;28;20428;-63
2022/11/24 15:02:54;;;;;;;3.78;1.60;;;;;;;;;;5080978;28;20041;-64
2022/11/24 15:05:45;;;;;;;3.83;1.70;;;;;;;;;;5039770;28;20052;-63
2022/11/24 15:08:16;;;;;;;3.97;1.33;;;;;;;;;;5078512;28;20044;-63
2022/11/24 15:10:47;;;;;;;2.03;1.10;;;;;;;;;;5063988;28;20499;-63
2022/11/24 15:13:22;;;;;;;4.82;1.00;;;;;;;;;;5081645;28;20071;-64
2022/11/24 15:16:00;;;;;;;4.03;1.58;;;;;;;;;;5081787;28;20059;-63
2022/11/24 15:18:55;;;;;;;3.90;1.70;;;;;;;;;;5030635;28;20412;-63
2022/11/24 15:21:33;;;;;;;2.35;1.50;;;;;;;;;;5082078;28;20040;-62
2022/11/24 15:24:16;;;;;;;3.65;1.38;;;;;;;;;;5039997;28;20044;-62
2022/11/24 15:26:47;;;;;;;7.78;4.50;;;;;;;;;;5085587;28;20048;-63
2022/11/24 15:29:17;;;;;;;5.88;4.15;;;;;;;;;;5031453;28;20050;-63
2022/11/24 15:31:47;;;;;;;1.60;0.98;;;;;;;;;;4998585;28;20065;-62
2022/11/24 15:34:21;;;;;;;3.55;2.42;;;;;;;;;;5031498;28;20053;-62
2022/11/24 15:36:51;;;;;;;2.60;1.23;;;;;;;;;;4998824;28;20085;-63
2022/11/24 15:39:21;;;;;;;2.97;1.00;;;;;;;;;;4996812;28;20084;-64